Time;durP1;ratioP1;P1;durP2;ratioP2;P2;SDS_P1;SDS_P2;PMS_P1;PMS_P2;Temp;Humidity;BMP_temperature;BMP_pressure;BME280_temperature;BME280_humidity;BME280_pressure;Samples;Min_cycle;Max_cycle;Signal;HPM_P1;HPM_P2
2023/09/14 00:00:52;;;;;;;10.27;2.80;;;;;;;;;;5068963;28;20521;-58
2023/09/14 00:03:19;;;;;;;6.68;2.65;;;;;;;;;;5081421;28;20152;-58
2023/09/14 00:05:46;;;;;;;8.07;2.17;;;;;;;;;;5085843;28;20110;-58
2023/09/14 00:08:13;;;;;;;9.38;2.83;;;;;;;;;;5084609;28;20517;-58
2023/09/14 00:10:40;;;;;;;7.00;2.53;;;;;;;;;;5083168;28;20511;-58
2023/09/14 00:13:07;;;;;;;12.48;2.83;;;;;;;;;;5084822;28;20049;-58
2023/09/14 00:15:34;;;;;;;7.15;1.73;;;;;;;;;;5086282;28;20140;-58
2023/09/14 00:18:01;;;;;;;8.52;2.22;;;;;;;;;;5084685;28;20049;-58
2023/09/14 00:20:32;;;;;;;7.53;2.10;;;;;;;;;;5084115;28;20239;-59
2023/09/14 00:22:58;;;;;;;8.63;2.63;;;;;;;;;;5084062;28;20056;-58
2023/09/14 00:25:25;;;;;;;15.57;3.33;;;;;;;;;;5084800;28;20059;-58
2023/09/14 00:27:52;;;;;;;8.60;2.75;;;;;;;;;;5082345;28;20063;-58
2023/09/14 00:30:19;;;;;;;6.15;2.40;;;;;;;;;;5085292;28;20066;-58
2023/09/14 00:32:47;;;;;;;7.15;2.42;;;;;;;;;;5084028;28;20056;-58
2023/09/14 00:35:14;;;;;;;8.70;2.47;;;;;;;;;;5083328;28;20655;-58
2023/09/14 00:37:41;;;;;;;5.65;2.00;;;;;;;;;;5082892;28;20372;-59
2023/09/14 00:40:09;;;;;;;5.25;2.08;;;;;;;;;;5066540;28;20478;-57
2023/09/14 00:42:38;;;;;;;6.30;2.08;;;;;;;;;;5085132;28;20059;-57
2023/09/14 00:45:06;;;;;;;6.43;2.85;;;;;;;;;;5082835;28;20080;-58
2023/09/14 00:47:32;;;;;;;9.52;2.75;;;;;;;;;;5083662;28;20141;-58
2023/09/14 00:49:59;;;;;;;7.38;2.13;;;;;;;;;;5085124;28;20557;-59
2023/09/14 00:52:25;;;;;;;9.23;2.42;;;;;;;;;;5084744;28;20049;-58
2023/09/14 00:54:52;;;;;;;7.00;2.10;;;;;;;;;;5083337;28;20056;-57
2023/09/14 00:57:20;;;;;;;10.10;2.30;;;;;;;;;;5083132;28;20056;-56
2023/09/14 00:59:46;;;;;;;6.25;2.05;;;;;;;;;;5085008;28;20466;-58
2023/09/14 01:02:13;;;;;;;7.78;2.92;;;;;;;;;;5080440;28;20615;-56
2023/09/14 01:04:41;;;;;;;4.40;2.47;;;;;;;;;;5064405;28;20052;-57
2023/09/14 01:07:08;;;;;;;5.57;1.83;;;;;;;;;;5084892;28;20149;-59
2023/09/14 01:09:35;;;;;;;6.97;2.20;;;;;;;;;;5083720;28;20514;-59
2023/09/14 01:12:03;;;;;;;7.18;2.35;;;;;;;;;;5065976;28;20049;-58
2023/09/14 01:14:52;;;;;;;6.63;1.85;;;;;;;;;;5085685;28;20064;-56
2023/09/14 01:17:23;;;;;;;7.65;2.38;;;;;;;;;;5083614;28;20060;-58
2023/09/14 01:19:54;;;;;;;4.25;2.05;;;;;;;;;;5084058;28;20048;-58
2023/09/14 01:22:39;;;;;;;8.48;2.58;;;;;;;;;;5081109;28;20052;-58
2023/09/14 01:25:19;;;;;;;7.35;2.13;;;;;;;;;;5084058;28;20056;-57
2023/09/14 01:27:46;;;;;;;5.88;2.10;;;;;;;;;;5083704;28;20052;-55
2023/09/14 01:30:12;;;;;;;7.43;2.17;;;;;;;;;;5084147;28;20057;-57
2023/09/14 01:32:38;;;;;;;7.82;2.15;;;;;;;;;;5083608;28;20052;-57
2023/09/14 01:35:05;;;;;;;4.80;1.90;;;;;;;;;;5081957;28;20052;-58
2023/09/14 01:37:32;;;;;;;6.50;2.35;;;;;;;;;;5082609;28;20048;-55
2023/09/14 01:39:58;;;;;;;4.97;2.00;;;;;;;;;;5083901;28;20068;-58
2023/09/14 01:42:25;;;;;;;5.45;2.28;;;;;;;;;;5083656;28;20731;-58
2023/09/14 01:44:52;;;;;;;5.43;2.08;;;;;;;;;;5084507;28;20048;-58
2023/09/14 01:47:19;;;;;;;7.15;2.65;;;;;;;;;;5064860;28;20061;-57
2023/09/14 01:49:45;;;;;;;8.48;2.15;;;;;;;;;;5083606;28;20052;-57
2023/09/14 01:52:12;;;;;;;13.15;2.47;;;;;;;;;;5082441;28;20048;-56
2023/09/14 01:54:38;;;;;;;5.60;2.38;;;;;;;;;;5083604;28;20059;-57
2023/09/14 01:57:05;;;;;;;8.02;2.17;;;;;;;;;;5083135;28;20345;-58
2023/09/14 01:59:32;;;;;;;8.43;3.45;;;;;;;;;;5082739;28;20608;-58
2023/09/14 02:01:58;;;;;;;11.38;2.90;;;;;;;;;;5081567;28;20141;-56
2023/09/14 02:04:25;;;;;;;6.60;2.38;;;;;;;;;;5083398;28;20057;-56
2023/09/14 02:06:51;;;;;;;3.65;2.08;;;;;;;;;;5083355;28;20053;-58
2023/09/14 02:09:18;;;;;;;4.47;2.53;;;;;;;;;;5083215;28;20178;-57
2023/09/14 02:11:44;;;;;;;5.55;2.17;;;;;;;;;;5084691;28;20065;-57
2023/09/14 02:14:11;;;;;;;9.32;2.63;;;;;;;;;;5081683;28;20052;-55
2023/09/14 02:16:37;;;;;;;9.10;2.20;;;;;;;;;;5083768;28;20053;-58
2023/09/14 02:19:04;;;;;;;4.35;2.17;;;;;;;;;;5082642;28;20049;-57
2023/09/14 02:21:31;;;;;;;9.13;2.33;;;;;;;;;;5083071;28;20511;-58
2023/09/14 02:23:57;;;;;;;8.50;2.70;;;;;;;;;;5064662;28;20491;-57
2023/09/14 02:26:24;;;;;;;5.57;2.30;;;;;;;;;;5083832;28;20076;-58
2023/09/14 02:28:50;;;;;;;9.45;2.55;;;;;;;;;;5082696;28;20053;-59
2023/09/14 02:31:19;;;;;;;3.92;1.92;;;;;;;;;;5073229;28;20586;-58
2023/09/14 02:33:45;;;;;;;8.57;2.20;;;;;;;;;;5075993;28;20048;-59
2023/09/14 02:36:12;;;;;;;4.45;1.90;;;;;;;;;;5061869;28;20127;-57
2023/09/14 02:38:39;;;;;;;9.27;2.42;;;;;;;;;;5080743;28;20052;-57
2023/09/14 02:41:05;;;;;;;5.97;2.33;;;;;;;;;;5080189;28;20169;-58
2023/09/14 02:43:32;;;;;;;11.25;3.22;;;;;;;;;;5083819;28;20052;-59
2023/09/14 02:45:58;;;;;;;7.45;2.25;;;;;;;;;;5082476;28;20143;-57
2023/09/14 02:48:24;;;;;;;6.25;2.58;;;;;;;;;;5080781;28;20057;-57
2023/09/14 02:50:51;;;;;;;4.47;2.13;;;;;;;;;;5082001;28;20056;-57
2023/09/14 02:53:17;;;;;;;11.80;2.63;;;;;;;;;;5083141;28;20125;-57
2023/09/14 02:55:44;;;;;;;5.82;2.42;;;;;;;;;;5083043;28;20053;-58
2023/09/14 02:58:10;;;;;;;7.45;2.10;;;;;;;;;;5082395;28;20107;-59
2023/09/14 03:00:38;;;;;;;9.82;2.20;;;;;;;;;;5081862;28;20472;-58
2023/09/14 03:03:07;;;;;;;4.90;2.38;;;;;;;;;;5081492;28;20052;-59
2023/09/14 03:05:33;;;;;;;8.70;2.30;;;;;;;;;;5083031;28;20049;-58
2023/09/14 03:08:01;;;;;;;7.25;2.58;;;;;;;;;;5062977;28;20503;-58
2023/09/14 03:10:27;;;;;;;4.15;1.98;;;;;;;;;;5062869;28;20502;-58
2023/09/14 03:12:54;;;;;;;6.03;2.45;;;;;;;;;;5081274;28;20053;-57
2023/09/14 03:15:20;;;;;;;7.85;2.63;;;;;;;;;;5083659;28;20135;-58
2023/09/14 03:17:47;;;;;;;4.93;2.60;;;;;;;;;;5082499;28;20049;-58
2023/09/14 03:20:13;;;;;;;5.90;2.65;;;;;;;;;;5081690;28;20056;-58
2023/09/14 03:22:40;;;;;;;4.25;2.58;;;;;;;;;;5082817;28;20055;-58
2023/09/14 03:25:06;;;;;;;5.15;2.65;;;;;;;;;;5078581;28;20076;-57
2023/09/14 03:27:33;;;;;;;6.57;2.00;;;;;;;;;;5083074;28;20114;-58
2023/09/14 03:30:00;;;;;;;9.32;2.95;;;;;;;;;;5081559;28;20079;-57
2023/09/14 03:32:26;;;;;;;9.43;2.90;;;;;;;;;;5079536;28;20048;-58
2023/09/14 03:34:52;;;;;;;8.82;3.00;;;;;;;;;;5064564;28;20503;-59
2023/09/14 03:37:19;;;;;;;9.18;3.45;;;;;;;;;;5081186;28;20070;-57
2023/09/14 03:39:45;;;;;;;4.80;2.58;;;;;;;;;;5082244;28;20060;-58
2023/09/14 03:42:12;;;;;;;5.82;2.60;;;;;;;;;;5082392;28;20060;-58
2023/09/14 03:44:38;;;;;;;6.50;2.55;;;;;;;;;;5082445;28;20088;-58
2023/09/14 03:47:05;;;;;;;5.28;2.50;;;;;;;;;;5077596;28;20507;-57
2023/09/14 03:49:32;;;;;;;6.32;2.47;;;;;;;;;;5079976;28;20108;-54
2023/09/14 03:51:58;;;;;;;8.05;3.08;;;;;;;;;;5068141;28;20100;-59
2023/09/14 03:54:25;;;;;;;5.50;2.90;;;;;;;;;;5079988;28;20629;-58
2023/09/14 03:56:52;;;;;;;5.05;2.70;;;;;;;;;;5081464;28;20597;-57
2023/09/14 03:59:18;;;;;;;7.90;2.50;;;;;;;;;;5080394;28;20056;-58
2023/09/14 04:01:44;;;;;;;3.80;2.72;;;;;;;;;;5076995;28;20152;-58
2023/09/14 04:04:11;;;;;;;5.72;2.55;;;;;;;;;;5080615;28;20056;-59
2023/09/14 04:06:37;;;;;;;6.45;2.70;;;;;;;;;;5082694;28;20052;-59
2023/09/14 04:09:04;;;;;;;7.97;2.75;;;;;;;;;;5079011;28;20752;-58
2023/09/14 04:11:31;;;;;;;4.90;2.60;;;;;;;;;;5082622;28;20130;-56
2023/09/14 04:13:58;;;;;;;8.55;2.90;;;;;;;;;;5081485;28;20056;-57
2023/09/14 04:16:28;;;;;;;4.43;2.60;;;;;;;;;;5081906;28;20056;-55
2023/09/14 04:19:00;;;;;;;11.30;3.15;;;;;;;;;;5081724;28;20057;-58
2023/09/14 04:21:27;;;;;;;6.97;3.15;;;;;;;;;;5083085;28;20052;-58
2023/09/14 04:23:54;;;;;;;4.68;2.92;;;;;;;;;;5079435;28;20557;-59
2023/09/14 04:26:20;;;;;;;7.85;3.00;;;;;;;;;;5080799;28;20102;-56
2023/09/14 04:28:47;;;;;;;7.07;3.45;;;;;;;;;;5079280;28;20130;-58
2023/09/14 04:31:14;;;;;;;4.65;2.92;;;;;;;;;;5081143;28;20057;-59
2023/09/14 04:33:42;;;;;;;7.88;3.20;;;;;;;;;;5078130;28;20139;-57
2023/09/14 04:36:08;;;;;;;6.22;3.20;;;;;;;;;;5079708;28;20048;-58
2023/09/14 04:38:35;;;;;;;4.53;2.92;;;;;;;;;;5060834;28;20980;-57
2023/09/14 04:41:04;;;;;;;5.97;3.22;;;;;;;;;;5061036;28;20470;-58
2023/09/14 04:43:32;;;;;;;10.27;3.67;;;;;;;;;;5061655;28;20049;-56
2023/09/14 04:46:02;;;;;;;7.82;2.97;;;;;;;;;;5061785;28;20096;-58
2023/09/14 04:48:28;;;;;;;7.15;3.00;;;;;;;;;;5060383;28;20127;-58
2023/09/14 04:50:56;;;;;;;5.93;2.80;;;;;;;;;;5064018;28;20977;-59
2023/09/14 04:53:26;;;;;;;5.28;3.03;;;;;;;;;;5064921;28;20060;-59
2023/09/14 04:55:52;;;;;;;7.22;2.97;;;;;;;;;;5064665;28;20059;-58
2023/09/14 04:58:19;;;;;;;6.18;3.08;;;;;;;;;;5063949;28;20052;-57
2023/09/14 05:00:48;;;;;;;5.65;3.38;;;;;;;;;;5061959;28;20049;-57
2023/09/14 05:03:15;;;;;;;11.65;3.50;;;;;;;;;;5064052;28;20542;-58
2023/09/14 05:05:42;;;;;;;9.00;3.42;;;;;;;;;;5064624;28;20055;-57
2023/09/14 05:08:08;;;;;;;9.45;3.30;;;;;;;;;;5064344;28;20057;-57
2023/09/14 05:10:36;;;;;;;8.15;3.00;;;;;;;;;;5065871;28;20045;-57
2023/09/14 05:13:03;;;;;;;5.93;3.45;;;;;;;;;;5055389;28;20054;-57
2023/09/14 05:15:31;;;;;;;11.45;3.90;;;;;;;;;;5051559;28;20055;-56
2023/09/14 05:17:57;;;;;;;6.63;3.45;;;;;;;;;;5060576;28;20049;-57
2023/09/14 05:20:24;;;;;;;6.28;2.75;;;;;;;;;;5059615;28;20060;-58
2023/09/14 05:22:51;;;;;;;9.57;3.00;;;;;;;;;;5064160;28;20569;-57
2023/09/14 05:25:17;;;;;;;7.35;2.88;;;;;;;;;;5063052;28;20139;-56
2023/09/14 05:27:44;;;;;;;8.57;3.30;;;;;;;;;;5063963;28;20066;-59
2023/09/14 05:30:10;;;;;;;14.10;3.30;;;;;;;;;;5062623;28;20053;-58
2023/09/14 05:32:38;;;;;;;8.15;3.33;;;;;;;;;;5060733;28;20080;-57
2023/09/14 05:35:06;;;;;;;8.30;2.78;;;;;;;;;;5063664;28;20052;-58
2023/09/14 05:37:33;;;;;;;5.63;3.35;;;;;;;;;;5065989;28;20060;-58
2023/09/14 05:39:59;;;;;;;9.98;3.65;;;;;;;;;;5085087;28;20056;-58
2023/09/14 05:42:27;;;;;;;10.35;3.55;;;;;;;;;;5080924;28;20534;-58
2023/09/14 05:44:54;;;;;;;11.32;3.22;;;;;;;;;;5078275;28;20051;-58
2023/09/14 05:47:20;;;;;;;8.70;3.17;;;;;;;;;;5083182;28;20056;-57
2023/09/14 05:49:47;;;;;;;10.95;3.63;;;;;;;;;;5084681;28;20071;-60
2023/09/14 05:52:14;;;;;;;6.75;2.42;;;;;;;;;;5074886;28;20057;-59
2023/09/14 05:54:40;;;;;;;11.52;3.20;;;;;;;;;;5046315;28;20057;-58
2023/09/14 05:57:07;;;;;;;6.53;2.92;;;;;;;;;;5064111;28;20049;-59
2023/09/14 05:59:34;;;;;;;11.18;3.60;;;;;;;;;;5064151;28;20486;-59
2023/09/14 06:02:01;;;;;;;8.43;3.55;;;;;;;;;;5082967;28;20167;-61
2023/09/14 06:04:27;;;;;;;9.52;2.90;;;;;;;;;;5084407;28;20507;-58
2023/09/14 06:06:54;;;;;;;11.02;3.25;;;;;;;;;;5083654;28;20059;-59
2023/09/14 06:09:20;;;;;;;8.02;3.50;;;;;;;;;;5081022;28;20053;-57
2023/09/14 06:11:47;;;;;;;12.88;3.58;;;;;;;;;;5079702;28;20053;-57
2023/09/14 06:14:13;;;;;;;11.43;3.20;;;;;;;;;;5083703;28;20058;-58
2023/09/14 06:16:40;;;;;;;8.90;3.13;;;;;;;;;;5084385;28;20053;-58
2023/09/14 06:19:06;;;;;;;8.50;3.47;;;;;;;;;;5083446;28;20139;-58
2023/09/14 06:21:34;;;;;;;8.73;3.15;;;;;;;;;;5084965;28;20476;-59
2023/09/14 06:24:01;;;;;;;14.05;3.90;;;;;;;;;;5083904;28;20083;-59
2023/09/14 06:26:28;;;;;;;6.72;3.03;;;;;;;;;;5084883;28;20052;-59
2023/09/14 06:28:55;;;;;;;8.15;3.08;;;;;;;;;;5081462;28;20140;-59
2023/09/14 06:31:25;;;;;;;7.53;3.70;;;;;;;;;;5082248;28;20076;-60
2023/09/14 06:33:52;;;;;;;11.30;3.60;;;;;;;;;;5082495;28;20064;-58
2023/09/14 06:36:18;;;;;;;10.57;3.20;;;;;;;;;;5082911;28;20055;-59
2023/09/14 06:38:45;;;;;;;10.20;3.35;;;;;;;;;;5079999;28;20080;-58
2023/09/14 06:41:12;;;;;;;5.72;2.90;;;;;;;;;;5081190;28;20504;-59
2023/09/14 06:43:46;;;;;;;16.30;3.90;;;;;;;;;;5083824;28;20044;-58
2023/09/14 06:46:13;;;;;;;7.85;3.08;;;;;;;;;;5082641;28;20494;-60
2023/09/14 06:48:40;;;;;;;5.80;3.10;;;;;;;;;;5083252;28;20063;-57
2023/09/14 06:51:07;;;;;;;7.20;3.33;;;;;;;;;;5083114;28;20056;-58
2023/09/14 06:53:33;;;;;;;10.02;3.63;;;;;;;;;;5082451;28;20052;-59
2023/09/14 06:56:07;;;;;;;8.15;3.63;;;;;;;;;;5082490;28;20049;-59
2023/09/14 06:58:34;;;;;;;6.90;3.25;;;;;;;;;;5080715;28;20063;-58
2023/09/14 07:01:03;;;;;;;10.52;4.07;;;;;;;;;;5084364;28;20103;-58
2023/09/14 07:03:32;;;;;;;14.82;3.50;;;;;;;;;;5083279;28;20060;-59
2023/09/14 07:06:00;;;;;;;15.30;3.95;;;;;;;;;;5083072;28;20514;-57
2023/09/14 07:08:27;;;;;;;11.30;3.03;;;;;;;;;;5064837;28;20052;-59
2023/09/14 07:10:54;;;;;;;11.35;3.72;;;;;;;;;;5083456;28;20080;-57
2023/09/14 07:13:21;;;;;;;12.88;4.32;;;;;;;;;;5083044;28;20177;-58
2023/09/14 07:15:47;;;;;;;10.52;3.85;;;;;;;;;;5083318;28;20053;-58
2023/09/14 07:18:28;;;;;;;8.90;4.03;;;;;;;;;;5083297;28;20050;-58
2023/09/14 07:20:55;;;;;;;8.18;3.33;;;;;;;;;;5083475;28;20048;-55
2023/09/14 07:23:21;;;;;;;13.77;3.17;;;;;;;;;;5083601;28;20048;-59
2023/09/14 07:25:48;;;;;;;12.80;2.85;;;;;;;;;;5082626;28;20131;-59
2023/09/14 07:28:16;;;;;;;8.68;3.42;;;;;;;;;;5082184;28;20146;-59
2023/09/14 07:30:43;;;;;;;15.95;3.30;;;;;;;;;;5082872;28;20906;-58
2023/09/14 07:33:12;;;;;;;9.95;2.67;;;;;;;;;;5083516;28;20114;-60
2023/09/14 07:35:41;;;;;;;8.20;3.20;;;;;;;;;;5065357;28;20057;-59
2023/09/14 07:38:08;;;;;;;11.55;3.08;;;;;;;;;;5082701;28;20056;-59
2023/09/14 07:40:36;;;;;;;11.10;3.65;;;;;;;;;;5083780;28;20052;-60
2023/09/14 07:43:03;;;;;;;12.13;3.92;;;;;;;;;;5083314;28;20076;-59
2023/09/14 07:45:37;;;;;;;7.30;3.40;;;;;;;;;;5081689;28;20049;-60
2023/09/14 07:48:06;;;;;;;15.50;5.50;;;;;;;;;;5083005;28;20088;-58
2023/09/14 07:50:34;;;;;;;11.73;5.65;;;;;;;;;;5065150;28;20056;-59
2023/09/14 07:53:03;;;;;;;17.27;5.40;;;;;;;;;;5083517;28;20048;-59
2023/09/14 07:55:30;;;;;;;16.48;5.80;;;;;;;;;;5082696;28;20084;-58
2023/09/14 07:57:56;;;;;;;21.20;5.55;;;;;;;;;;5080890;28;20139;-56
2023/09/14 08:00:23;;;;;;;8.90;4.85;;;;;;;;;;5080569;28;20526;-60
2023/09/14 08:02:49;;;;;;;7.95;4.53;;;;;;;;;;5080570;28;20048;-58
2023/09/14 08:05:16;;;;;;;18.45;5.00;;;;;;;;;;5080977;28;20059;-59
2023/09/14 08:07:42;;;;;;;13.50;4.88;;;;;;;;;;5082339;28;20061;-57
2023/09/14 08:10:09;;;;;;;12.65;4.45;;;;;;;;;;5078472;28;20049;-59
2023/09/14 08:12:39;;;;;;;10.02;4.65;;;;;;;;;;5064709;28;20060;-57
2023/09/14 08:15:06;;;;;;;9.65;4.68;;;;;;;;;;5079709;28;20186;-59
2023/09/14 08:17:32;;;;;;;11.23;4.65;;;;;;;;;;5077149;28;20045;-59
2023/09/14 08:19:59;;;;;;;11.82;5.10;;;;;;;;;;5081558;28;20063;-58
2023/09/14 08:22:26;;;;;;;11.35;5.45;;;;;;;;;;5085620;28;20048;-58
2023/09/14 08:24:52;;;;;;;13.20;5.50;;;;;;;;;;5084103;28;20056;-57
2023/09/14 08:27:19;;;;;;;13.10;5.53;;;;;;;;;;5084405;28;20135;-59
2023/09/14 08:29:45;;;;;;;13.88;5.30;;;;;;;;;;5084076;28;20141;-59
2023/09/14 08:32:12;;;;;;;11.35;5.93;;;;;;;;;;5085016;28;20430;-57
2023/09/14 08:34:38;;;;;;;11.23;5.80;;;;;;;;;;5081096;28;20122;-56
2023/09/14 08:37:09;;;;;;;13.90;5.45;;;;;;;;;;5080468;28;20051;-60
2023/09/14 08:39:36;;;;;;;8.57;5.30;;;;;;;;;;5084121;28;20101;-58
2023/09/14 08:42:03;;;;;;;18.15;6.32;;;;;;;;;;5084491;28;20147;-58
2023/09/14 08:44:36;;;;;;;11.27;5.22;;;;;;;;;;5085294;28;20105;-59
2023/09/14 08:47:02;;;;;;;14.10;6.28;;;;;;;;;;5083029;28;20470;-57
2023/09/14 08:49:32;;;;;;;9.70;4.95;;;;;;;;;;5083900;28;20064;-54
2023/09/14 08:51:58;;;;;;;12.55;5.03;;;;;;;;;;5084123;28;20131;-59
2023/09/14 08:54:25;;;;;;;9.70;5.38;;;;;;;;;;5083126;28;20052;-58
2023/09/14 08:56:51;;;;;;;14.00;4.82;;;;;;;;;;5082949;28;20059;-57
2023/09/14 08:59:19;;;;;;;10.60;4.82;;;;;;;;;;5084514;28;20049;-58
2023/09/14 09:01:47;;;;;;;9.63;4.82;;;;;;;;;;5082703;28;20497;-58
2023/09/14 09:04:14;;;;;;;13.20;5.30;;;;;;;;;;5084677;28;20052;-57
2023/09/14 09:06:41;;;;;;;11.85;4.97;;;;;;;;;;5083491;28;20598;-56
2023/09/14 09:09:08;;;;;;;11.93;4.63;;;;;;;;;;5083394;28;20052;-58
2023/09/14 09:11:35;;;;;;;10.32;4.90;;;;;;;;;;5078697;28;20056;-60
2023/09/14 09:14:02;;;;;;;12.23;4.75;;;;;;;;;;5081862;28;20056;-58
2023/09/14 09:16:29;;;;;;;9.57;4.22;;;;;;;;;;5082600;28;20596;-58
2023/09/14 09:19:03;;;;;;;9.98;4.68;;;;;;;;;;5083498;28;20122;-59
2023/09/14 09:21:34;;;;;;;19.88;5.07;;;;;;;;;;5066728;28;20693;-59
2023/09/14 09:24:05;;;;;;;8.82;4.38;;;;;;;;;;5084542;28;20572;-58
2023/09/14 09:26:36;;;;;;;8.40;4.40;;;;;;;;;;5082679;28;20499;-59
2023/09/14 09:29:13;;;;;;;6.90;4.22;;;;;;;;;;5061585;28;20045;-57
2023/09/14 09:31:50;;;;;;;13.23;4.57;;;;;;;;;;5073027;28;20072;-59
2023/09/14 09:34:23;;;;;;;6.78;3.88;;;;;;;;;;5081628;28;20048;-59
2023/09/14 09:36:55;;;;;;;11.43;4.97;;;;;;;;;;5081115;28;20122;-58
2023/09/14 09:39:22;;;;;;;9.77;4.22;;;;;;;;;;5084637;28;20067;-57
2023/09/14 09:41:49;;;;;;;11.32;4.22;;;;;;;;;;5084344;28;20489;-59
2023/09/14 09:44:16;;;;;;;12.52;4.43;;;;;;;;;;5083199;28;20118;-58
2023/09/14 09:46:43;;;;;;;10.85;4.57;;;;;;;;;;5076059;28;20582;-59
2023/09/14 09:49:22;;;;;;;7.43;3.33;;;;;;;;;;5074466;28;20597;-58
2023/09/14 09:51:50;;;;;;;9.82;3.95;;;;;;;;;;5073539;28;20585;-60
2023/09/14 09:54:21;;;;;;;13.57;3.60;;;;;;;;;;5084061;28;20056;-58
2023/09/14 09:56:48;;;;;;;8.48;3.38;;;;;;;;;;5083502;28;20574;-57
2023/09/14 09:59:15;;;;;;;13.23;4.00;;;;;;;;;;5082887;28;20060;-59
2023/09/14 10:01:45;;;;;;;8.20;3.63;;;;;;;;;;5083010;28;20053;-58
2023/09/14 10:04:12;;;;;;;7.22;3.70;;;;;;;;;;5082166;28;20103;-57
2023/09/14 10:06:40;;;;;;;7.65;3.67;;;;;;;;;;5084240;28;20056;-59
2023/09/14 10:09:08;;;;;;;5.13;3.00;;;;;;;;;;5084143;28;20633;-57
2023/09/14 10:11:35;;;;;;;10.88;3.20;;;;;;;;;;5085308;28;20438;-57
2023/09/14 10:14:03;;;;;;;6.05;2.70;;;;;;;;;;5084760;28;20141;-58
2023/09/14 10:16:34;;;;;;;5.40;2.95;;;;;;;;;;5084314;28;20505;-59
2023/09/14 10:19:01;;;;;;;6.57;2.95;;;;;;;;;;5084488;28;20474;-58
2023/09/14 10:21:29;;;;;;;5.35;2.63;;;;;;;;;;5083530;28;20075;-58
2023/09/14 10:23:56;;;;;;;5.82;2.50;;;;;;;;;;5083506;28;20072;-58
2023/09/14 10:26:22;;;;;;;11.10;3.10;;;;;;;;;;5084265;28;20101;-58
2023/09/14 10:28:49;;;;;;;4.65;2.50;;;;;;;;;;5081040;28;20484;-58
2023/09/14 10:31:16;;;;;;;5.80;2.75;;;;;;;;;;5082076;28;20153;-58
2023/09/14 10:33:47;;;;;;;14.57;3.40;;;;;;;;;;5082332;28;20059;-59
2023/09/14 10:36:14;;;;;;;6.45;2.58;;;;;;;;;;5078980;28;20071;-58
2023/09/14 10:38:42;;;;;;;4.85;2.60;;;;;;;;;;5062792;28;20063;-57
2023/09/14 10:41:11;;;;;;;8.75;2.75;;;;;;;;;;5078129;28;20052;-59
2023/09/14 10:43:39;;;;;;;5.85;2.85;;;;;;;;;;5066940;27;20130;-58
2023/09/14 10:46:10;;;;;;;4.75;2.53;;;;;;;;;;5068114;28;20202;-56
2023/09/14 10:48:37;;;;;;;4.40;2.65;;;;;;;;;;5073185;28;20761;-59
2023/09/14 10:51:04;;;;;;;8.65;2.08;;;;;;;;;;5062350;28;20561;-58
2023/09/14 10:53:31;;;;;;;5.03;2.88;;;;;;;;;;5077211;28;20519;-58
2023/09/14 10:55:58;;;;;;;4.82;2.63;;;;;;;;;;5063291;28;20520;-55
2023/09/14 10:58:24;;;;;;;9.00;2.40;;;;;;;;;;5070048;28;20052;-58
2023/09/14 11:01:00;;;;;;;7.32;2.22;;;;;;;;;;5073446;28;20128;-58
2023/09/14 11:03:49;;;;;;;4.30;2.88;;;;;;;;;;5073042;28;20085;-58
2023/09/14 11:06:36;;;;;;;7.18;2.65;;;;;;;;;;5074793;28;20055;-58
2023/09/14 11:09:05;;;;;;;9.00;2.88;;;;;;;;;;5072322;28;20055;-59
2023/09/14 11:11:39;;;;;;;8.48;3.30;;;;;;;;;;5071035;28;20067;-59
2023/09/14 11:14:09;;;;;;;7.93;3.08;;;;;;;;;;5070886;28;20079;-58
2023/09/14 11:16:52;;;;;;;5.43;3.00;;;;;;;;;;5067479;28;20098;-58
2023/09/14 11:19:40;;;;;;;4.93;2.65;;;;;;;;;;5062470;28;20523;-58
2023/09/14 11:22:23;;;;;;;5.30;2.83;;;;;;;;;;5073586;28;20084;-58
2023/09/14 11:24:52;;;;;;;3.58;2.33;;;;;;;;;;5062674;28;20136;-58
2023/09/14 11:27:22;;;;;;;6.55;2.42;;;;;;;;;;5070588;28;20290;-57
2023/09/14 11:29:52;;;;;;;4.30;2.40;;;;;;;;;;5072274;28;20091;-57
2023/09/14 11:32:25;;;;;;;6.47;2.55;;;;;;;;;;5062664;28;20060;-58
2023/09/14 11:34:56;;;;;;;6.00;2.05;;;;;;;;;;5083035;28;20589;-58
2023/09/14 11:37:28;;;;;;;5.57;2.42;;;;;;;;;;5080621;28;20131;-56
2023/09/14 11:40:01;;;;;;;3.42;2.40;;;;;;;;;;5078785;28;20181;-58
2023/09/14 11:42:49;;;;;;;5.50;2.70;;;;;;;;;;5079665;28;20053;-59
2023/09/14 11:45:18;;;;;;;6.05;2.67;;;;;;;;;;5065473;28;20048;-55
2023/09/14 11:47:49;;;;;;;6.47;2.63;;;;;;;;;;5080717;28;20055;-59
2023/09/14 11:50:20;;;;;;;6.95;2.97;;;;;;;;;;5061889;28;20159;-59
2023/09/14 11:52:46;;;;;;;5.25;2.78;;;;;;;;;;5058087;28;20081;-57
2023/09/14 11:55:19;;;;;;;6.75;2.83;;;;;;;;;;5082937;28;20508;-59
2023/09/14 11:57:45;;;;;;;5.50;2.45;;;;;;;;;;5080887;28;20620;-59
2023/09/14 12:00:12;;;;;;;6.78;2.60;;;;;;;;;;5077226;28;20048;-59
2023/09/14 12:02:39;;;;;;;6.03;2.70;;;;;;;;;;5081775;28;20121;-55
2023/09/14 12:05:05;;;;;;;4.85;2.60;;;;;;;;;;5083092;28;20053;-59
2023/09/14 12:07:32;;;;;;;6.47;3.05;;;;;;;;;;5064810;28;20089;-59
2023/09/14 12:09:59;;;;;;;7.82;3.25;;;;;;;;;;5080335;28;20154;-58
2023/09/14 12:12:26;;;;;;;6.90;2.58;;;;;;;;;;5082371;28;20057;-58
2023/09/14 12:14:53;;;;;;;4.43;2.30;;;;;;;;;;5082587;28;20080;-59
2023/09/14 12:17:20;;;;;;;5.93;2.50;;;;;;;;;;5075861;28;20366;-59
2023/09/14 12:19:48;;;;;;;10.10;2.85;;;;;;;;;;5082207;28;20139;-59
2023/09/14 12:22:15;;;;;;;4.18;2.17;;;;;;;;;;5079781;28;20055;-59
2023/09/14 12:24:43;;;;;;;4.40;2.55;;;;;;;;;;5075190;28;20107;-59
2023/09/14 12:27:10;;;;;;;4.13;2.47;;;;;;;;;;5065202;28;20053;-59
2023/09/14 12:29:36;;;;;;;4.25;2.35;;;;;;;;;;5068186;28;20061;-59
2023/09/14 12:32:03;;;;;;;3.40;2.08;;;;;;;;;;5085827;28;20059;-58
2023/09/14 12:34:30;;;;;;;5.50;2.38;;;;;;;;;;5074990;28;20294;-58
2023/09/14 12:36:58;;;;;;;5.15;2.80;;;;;;;;;;5082820;28;20053;-60
2023/09/14 12:39:25;;;;;;;6.63;2.20;;;;;;;;;;5077961;28;20053;-59
2023/09/14 12:41:53;;;;;;;5.45;2.53;;;;;;;;;;5066766;28;20457;-57
2023/09/14 12:44:22;;;;;;;2.97;1.98;;;;;;;;;;5063784;28;20456;-58
2023/09/14 12:46:52;;;;;;;5.78;2.22;;;;;;;;;;5064688;28;20112;-57
2023/09/14 12:49:18;;;;;;;6.00;2.70;;;;;;;;;;5064174;28;20123;-59
2023/09/14 12:51:48;;;;;;;4.63;2.70;;;;;;;;;;5068023;28;20076;-61
2023/09/14 12:54:17;;;;;;;9.65;2.67;;;;;;;;;;5076744;28;20578;-57
2023/09/14 12:56:44;;;;;;;7.15;2.95;;;;;;;;;;5082487;28;20052;-58
2023/09/14 12:59:11;;;;;;;7.07;2.47;;;;;;;;;;5072016;28;20064;-59
2023/09/14 13:01:39;;;;;;;6.05;2.45;;;;;;;;;;5077674;28;20067;-59
2023/09/14 13:04:05;;;;;;;5.65;2.42;;;;;;;;;;5064234;28;20555;-56
2023/09/14 13:06:32;;;;;;;5.80;2.60;;;;;;;;;;5083400;28;20059;-59
2023/09/14 13:09:06;;;;;;;7.97;2.50;;;;;;;;;;5073071;28;20611;-59
2023/09/14 13:11:34;;;;;;;4.38;2.50;;;;;;;;;;5081790;28;20535;-59
2023/09/14 13:14:02;;;;;;;4.53;2.45;;;;;;;;;;5077886;28;20057;-60
2023/09/14 13:16:28;;;;;;;8.80;3.03;;;;;;;;;;5083777;28;20115;-59
2023/09/14 13:18:58;;;;;;;5.80;2.40;;;;;;;;;;5067121;28;20048;-59
2023/09/14 13:21:25;;;;;;;7.15;2.80;;;;;;;;;;5074389;28;20058;-59
2023/09/14 13:23:52;;;;;;;6.10;2.70;;;;;;;;;;5078021;28;20496;-59
2023/09/14 13:26:20;;;;;;;5.00;2.90;;;;;;;;;;5078061;28;20522;-57
2023/09/14 13:28:46;;;;;;;5.50;2.83;;;;;;;;;;5080870;28;20248;-59
2023/09/14 13:31:14;;;;;;;4.80;2.42;;;;;;;;;;5068064;28;20057;-59
2023/09/14 13:33:40;;;;;;;8.55;2.35;;;;;;;;;;5072529;28;20060;-59
2023/09/14 13:36:07;;;;;;;4.47;2.30;;;;;;;;;;5064986;28;20053;-59
2023/09/14 13:38:34;;;;;;;5.22;2.60;;;;;;;;;;5083245;28;20586;-59
2023/09/14 13:41:03;;;;;;;6.45;2.60;;;;;;;;;;5082413;28;20060;-56
2023/09/14 13:43:30;;;;;;;4.35;2.50;;;;;;;;;;5074799;28;20088;-59
2023/09/14 13:45:56;;;;;;;5.38;2.33;;;;;;;;;;5070172;28;20076;-58
2023/09/14 13:48:24;;;;;;;7.30;2.50;;;;;;;;;;5083805;28;20055;-58
2023/09/14 13:50:54;;;;;;;8.75;2.72;;;;;;;;;;5047466;28;20053;-58
2023/09/14 13:53:21;;;;;;;5.97;2.63;;;;;;;;;;5073587;28;20059;-59
2023/09/14 13:55:47;;;;;;;3.83;2.25;;;;;;;;;;5072534;28;20053;-57
2023/09/14 13:58:14;;;;;;;6.35;2.67;;;;;;;;;;5082445;28;20059;-58
2023/09/14 14:00:41;;;;;;;5.55;2.78;;;;;;;;;;5082169;28;20050;-55
2023/09/14 14:03:08;;;;;;;4.45;2.90;;;;;;;;;;5077753;28;20102;-59
2023/09/14 14:05:36;;;;;;;6.85;2.80;;;;;;;;;;5078204;28;20055;-57
2023/09/14 14:08:06;;;;;;;6.30;2.45;;;;;;;;;;5078494;28;20432;-59
2023/09/14 14:10:33;;;;;;;5.03;2.72;;;;;;;;;;5046571;28;20057;-59
2023/09/14 14:13:01;;;;;;;6.80;2.88;;;;;;;;;;5079768;28;20503;-59
2023/09/14 14:15:27;;;;;;;7.35;2.45;;;;;;;;;;5077880;28;20060;-59
2023/09/14 14:17:54;;;;;;;14.48;2.58;;;;;;;;;;5067455;28;20056;-56
2023/09/14 14:20:21;;;;;;;6.97;2.65;;;;;;;;;;5067928;28;20057;-59
2023/09/14 14:22:48;;;;;;;4.50;2.67;;;;;;;;;;5066162;28;20060;-59
2023/09/14 14:25:16;;;;;;;7.00;3.15;;;;;;;;;;5065813;28;20049;-59
2023/09/14 14:27:43;;;;;;;7.90;3.13;;;;;;;;;;5062532;28;20057;-58
2023/09/14 14:30:10;;;;;;;3.83;2.40;;;;;;;;;;5070839;28;20056;-59
2023/09/14 14:32:36;;;;;;;6.05;2.67;;;;;;;;;;5081174;28;20060;-57
2023/09/14 14:35:04;;;;;;;5.70;2.60;;;;;;;;;;5076248;28;20049;-59
2023/09/14 14:37:31;;;;;;;5.13;2.40;;;;;;;;;;5080537;28;20102;-59
2023/09/14 14:39:58;;;;;;;4.80;2.90;;;;;;;;;;5079422;28;20489;-56
2023/09/14 14:42:24;;;;;;;7.22;2.70;;;;;;;;;;5065098;28;20053;-59
2023/09/14 14:44:51;;;;;;;8.02;2.90;;;;;;;;;;5061696;28;20597;-58